createdAt,value
2018-10-06T00:00:29.222Z,5.87
2018-10-06T00:03:02.936Z,6.30
2018-10-06T00:05:36.750Z,6.37
2018-10-06T00:08:10.617Z,5.70
2018-10-06T00:10:44.430Z,5.83
2018-10-06T00:13:18.496Z,5.90
2018-10-06T00:15:52.300Z,6.53
2018-10-06T00:18:26.723Z,6.08
2018-10-06T00:21:00.719Z,6.50
2018-10-06T00:23:34.877Z,6.73
2018-10-06T00:26:08.976Z,7.37
2018-10-06T00:28:42.944Z,6.93
2018-10-06T00:31:16.919Z,5.62
2018-10-06T00:33:50.835Z,6.13
2018-10-06T00:36:24.710Z,5.55
2018-10-06T00:38:58.863Z,4.60
2018-10-06T00:41:32.290Z,4.27
2018-10-06T00:44:06.612Z,4.00
2018-10-06T00:46:40.304Z,5.03
2018-10-06T00:49:14.246Z,6.13
2018-10-06T00:51:49.134Z,9.08
2018-10-06T00:54:23.331Z,8.67
2018-10-06T00:56:56.863Z,8.23
2018-10-06T00:59:30.622Z,7.30
2018-10-06T01:02:04.087Z,7.33
2018-10-06T01:04:38.586Z,6.57
2018-10-06T01:07:12.374Z,8.03
2018-10-06T01:09:46.376Z,8.00
2018-10-06T01:12:20.711Z,6.00
2018-10-06T01:14:54.828Z,5.17
2018-10-06T01:17:28.604Z,5.70
2018-10-06T01:20:02.799Z,6.33
2018-10-06T01:22:36.451Z,6.00
2018-10-06T01:25:10.006Z,5.80
2018-10-06T01:27:44.451Z,5.83
2018-10-06T01:30:18.289Z,6.57
2018-10-06T01:32:52.156Z,6.07
2018-10-06T01:35:25.838Z,5.53
2018-10-06T01:37:59.457Z,4.58
2018-10-06T01:40:33.593Z,4.58
2018-10-06T01:43:08.023Z,4.63
2018-10-06T01:45:41.963Z,4.00
2018-10-06T01:48:15.809Z,3.20
2018-10-06T01:50:50.337Z,3.80
2018-10-06T01:53:25.318Z,5.00
2018-10-06T01:55:59.191Z,3.93
2018-10-06T01:58:33.003Z,4.00
2018-10-06T02:01:06.972Z,3.00
2018-10-06T02:03:40.761Z,3.20
2018-10-06T02:06:14.818Z,3.20
2018-10-06T02:08:48.241Z,3.43
2018-10-06T02:11:21.884Z,3.50
2018-10-06T02:13:57.160Z,3.73
2018-10-06T02:16:31.673Z,3.30
2018-10-06T02:19:05.520Z,3.43
2018-10-06T02:21:39.140Z,2.80
2018-10-06T02:24:12.293Z,2.65
2018-10-06T02:26:46.257Z,3.20
2018-10-06T02:29:19.771Z,2.80
2018-10-06T02:31:54.006Z,3.00
2018-10-06T02:34:28.063Z,2.70
2018-10-06T02:37:03.963Z,2.85
2018-10-06T02:39:37.712Z,2.70
2018-10-06T02:42:11.530Z,2.40
2018-10-06T02:44:45.522Z,2.67
2018-10-06T02:47:19.469Z,2.03
2018-10-06T02:49:53.112Z,1.80
2018-10-06T02:52:26.866Z,1.47
2018-10-06T02:55:02.024Z,1.70
2018-10-06T02:57:35.506Z,1.60
2018-10-06T03:00:09.382Z,1.57
2018-10-06T03:02:43.309Z,3.03
2018-10-06T03:05:17.549Z,2.70
2018-10-06T03:07:56.766Z,2.70
2018-10-06T03:10:30.915Z,4.20
2018-10-06T03:13:04.522Z,3.53
2018-10-06T03:15:38.534Z,4.50
2018-10-06T03:18:12.108Z,4.67
2018-10-06T03:20:45.155Z,4.70
2018-10-06T03:23:18.999Z,5.23
2018-10-06T03:30:51.895Z,3.90
2018-10-06T03:33:25.917Z,5.25
2018-10-06T03:35:59.796Z,4.30
2018-10-06T03:38:33.077Z,4.27
2018-10-06T03:41:07.073Z,4.10
2018-10-06T03:43:41.812Z,4.27
2018-10-06T03:46:16.049Z,4.43
2018-10-06T03:51:59.454Z,3.30
2018-10-06T03:54:33.150Z,3.93
2018-10-06T03:57:08.090Z,4.37
2018-10-06T03:59:42.034Z,3.83
2018-10-06T04:02:15.857Z,2.70
2018-10-06T04:04:49.544Z,2.92
2018-10-06T04:07:23.288Z,2.33
2018-10-06T04:09:57.150Z,2.40
2018-10-06T04:12:31.095Z,2.47
2018-10-06T04:15:04.738Z,2.17
2018-10-06T04:17:38.780Z,2.40
2018-10-06T04:20:12.585Z,2.20
2018-10-06T04:22:46.659Z,2.70
2018-10-06T04:25:20.170Z,2.67
2018-10-06T04:27:54.485Z,2.70
2018-10-06T04:30:29.287Z,2.20
2018-10-06T04:33:03.092Z,2.03
2018-10-06T04:35:36.992Z,2.13
2018-10-06T04:38:10.679Z,2.40
2018-10-06T04:40:44.346Z,2.30
2018-10-06T04:43:17.975Z,2.40
2018-10-06T04:45:51.480Z,2.52
2018-10-06T04:48:25.169Z,2.30
2018-10-06T04:50:58.786Z,2.47
2018-10-06T04:53:32.424Z,2.10
2018-10-06T04:56:06.461Z,2.40
2018-10-06T04:58:40.631Z,2.30
2018-10-06T05:01:14.826Z,2.50
2018-10-06T05:03:48.638Z,3.98
2018-10-06T05:06:22.421Z,3.47
2018-10-06T05:08:56.671Z,4.30
2018-10-06T05:11:30.581Z,4.92
2018-10-06T05:14:04.512Z,4.30
2018-10-06T05:16:37.964Z,4.17
2018-10-06T05:19:11.891Z,4.47
2018-10-06T05:21:45.714Z,4.60
2018-10-06T05:24:19.223Z,3.97
2018-10-06T05:26:53.043Z,5.10
2018-10-06T05:29:26.456Z,5.30
2018-10-06T05:31:59.834Z,4.77
2018-10-06T05:34:33.882Z,6.30
2018-10-06T05:42:09.461Z,5.13
2018-10-06T05:44:44.023Z,6.60
2018-10-06T05:47:17.676Z,5.80
2018-10-06T05:49:51.159Z,6.67
2018-10-06T05:52:24.998Z,6.23
2018-10-06T05:59:53.966Z,5.30
2018-10-06T06:02:28.038Z,5.13
2018-10-06T06:05:01.898Z,4.83
2018-10-06T06:07:35.671Z,4.90
2018-10-06T06:10:09.661Z,4.67
2018-10-06T06:12:44.076Z,3.70
2018-10-06T06:15:17.506Z,3.70
2018-10-06T06:17:51.730Z,4.07
2018-10-06T06:20:25.477Z,6.67
2018-10-06T06:22:59.140Z,5.07
2018-10-06T06:25:32.682Z,5.03
2018-10-06T06:28:06.347Z,5.00
2018-10-06T06:30:40.292Z,6.10
2018-10-06T06:33:13.705Z,6.13
2018-10-06T06:35:47.587Z,5.43
2018-10-06T06:38:21.349Z,5.57
2018-10-06T06:40:55.461Z,6.57
2018-10-06T06:43:29.479Z,6.30
2018-10-06T06:46:03.574Z,7.27
2018-10-06T06:48:37.370Z,6.43
2018-10-06T06:54:15.484Z,4.93
2018-10-06T06:56:49.269Z,5.40
2018-10-06T06:59:22.932Z,5.53
2018-10-06T07:01:58.192Z,5.53
2018-10-06T07:04:32.300Z,5.57
2018-10-06T07:07:06.385Z,4.87
2018-10-06T07:09:39.925Z,5.13
2018-10-06T07:12:13.608Z,5.40
2018-10-06T07:14:48.192Z,5.37
2018-10-06T07:17:22.054Z,6.10
2018-10-06T07:19:55.671Z,6.07
2018-10-06T07:22:29.608Z,4.90
2018-10-06T07:25:03.443Z,5.30
2018-10-06T07:27:37.485Z,5.40
2018-10-06T07:30:11.777Z,5.43
2018-10-06T07:32:45.428Z,5.10
2018-10-06T07:35:18.933Z,4.05
2018-10-06T07:37:53.577Z,3.83
2018-10-06T07:40:27.862Z,4.00
2018-10-06T07:43:01.713Z,4.20
2018-10-06T07:45:35.589Z,4.07
2018-10-06T07:48:09.452Z,3.50
2018-10-06T07:50:43.293Z,3.10
2018-10-06T07:53:17.033Z,2.77
2018-10-06T07:55:50.686Z,2.97
2018-10-06T07:58:24.926Z,3.40
2018-10-06T08:05:58.382Z,3.20
2018-10-06T08:08:31.926Z,3.17
2018-10-06T08:11:05.522Z,2.60
2018-10-06T08:13:39.620Z,3.10
2018-10-06T08:16:13.681Z,2.67
2018-10-06T08:18:47.370Z,3.03
2018-10-06T08:21:21.403Z,3.00
2018-10-06T08:23:55.558Z,3.17
2018-10-06T08:26:29.242Z,4.00
2018-10-06T08:29:02.548Z,3.60
2018-10-06T08:31:38.674Z,3.40
2018-10-06T08:34:12.851Z,3.42
2018-10-06T08:36:46.625Z,3.33
2018-10-06T08:39:20.799Z,3.17
2018-10-06T08:41:54.745Z,3.73
2018-10-06T08:44:28.522Z,3.67
2018-10-06T08:47:02.472Z,3.70
2018-10-06T08:49:36.034Z,3.80
2018-10-06T08:52:10.009Z,3.63
2018-10-06T08:54:43.439Z,3.85
2018-10-06T08:57:17.274Z,3.75
2018-10-06T08:59:50.571Z,3.90
2018-10-06T09:02:24.647Z,3.40
2018-10-06T09:04:58.404Z,3.70
2018-10-06T09:07:33.455Z,3.70
2018-10-06T09:10:07.118Z,3.93
2018-10-06T09:12:41.104Z,2.80
2018-10-06T09:15:15.987Z,2.40
2018-10-06T09:17:51.355Z,2.40
2018-10-06T09:20:24.744Z,1.82
2018-10-06T09:22:58.664Z,1.53
2018-10-06T09:25:36.042Z,2.17
2018-10-06T09:28:09.713Z,1.17
2018-10-06T09:35:44.860Z,1.50
2018-10-06T09:38:18.860Z,1.80
2018-10-06T09:40:52.376Z,2.72
2018-10-06T09:43:26.038Z,1.82
2018-10-06T09:45:59.574Z,1.67
2018-10-06T09:48:33.470Z,1.47
2018-10-06T09:53:58.328Z,1.30
2018-10-06T09:56:34.397Z,0.93
2018-10-06T09:59:08.029Z,1.10
2018-10-06T10:01:45.500Z,1.40
2018-10-06T10:04:20.037Z,2.00
2018-10-06T10:06:53.866Z,1.57
2018-10-06T10:09:29.555Z,1.37
2018-10-06T10:12:03.702Z,1.40
2018-10-06T10:14:37.302Z,1.43
2018-10-06T10:17:11.205Z,1.20
2018-10-06T10:19:44.841Z,0.98
2018-10-06T10:22:19.192Z,1.20
2018-10-06T10:24:53.204Z,1.27
2018-10-06T10:27:26.922Z,1.87
2018-10-06T10:30:00.755Z,1.10
2018-10-06T10:32:34.469Z,1.10
2018-10-06T10:35:12.392Z,1.03
2018-10-06T10:37:46.090Z,1.20
2018-10-06T10:40:19.774Z,1.03
2018-10-06T10:42:53.359Z,1.10
2018-10-06T10:45:27.251Z,1.00
2018-10-06T10:48:00.787Z,1.30
2018-10-06T10:50:34.626Z,1.10
2018-10-06T10:53:08.770Z,1.27
2018-10-06T10:55:42.206Z,1.40
2018-10-06T10:58:16.780Z,1.50
2018-10-06T11:00:52.973Z,1.33
2018-10-06T11:03:26.912Z,1.27
2018-10-06T11:06:00.348Z,1.10
2018-10-06T11:08:34.186Z,1.30
2018-10-06T11:11:08.910Z,1.10
2018-10-06T11:13:43.126Z,1.60
2018-10-06T11:21:20.097Z,1.40
2018-10-06T11:27:37.118Z,2.20
2018-10-06T11:30:10.743Z,1.87
2018-10-06T11:35:51.524Z,1.83
2018-10-06T11:38:26.450Z,2.60
2018-10-06T11:41:00.230Z,9.73
2018-10-06T11:46:32.013Z,5.63
2018-10-06T11:49:10.065Z,4.43
2018-10-06T11:51:43.885Z,2.93
2018-10-06T11:54:17.993Z,2.70
2018-10-06T12:00:46.277Z,2.20
2018-10-06T12:03:25.285Z,2.17
2018-10-06T12:05:58.793Z,2.47
2018-10-06T12:08:32.774Z,3.42
2018-10-06T12:11:11.914Z,3.20
2018-10-06T12:13:51.847Z,3.47
2018-10-06T12:16:25.973Z,3.95
2018-10-06T12:18:59.775Z,3.50
2018-10-06T12:21:33.310Z,3.10
2018-10-06T12:24:07.304Z,2.80
2018-10-06T12:26:41.281Z,2.80
2018-10-06T12:29:15.114Z,3.43
2018-10-06T12:31:48.924Z,4.47
2018-10-06T12:34:22.777Z,4.27
2018-10-06T12:36:57.065Z,6.03
2018-10-06T12:39:31.122Z,23.80
2018-10-06T12:42:05.359Z,13.60
2018-10-06T12:44:39.284Z,8.07
2018-10-06T12:47:13.475Z,6.10
2018-10-06T12:49:47.471Z,5.93
2018-10-06T12:52:21.544Z,4.83
2018-10-06T12:54:56.644Z,5.30
2018-10-06T12:57:30.141Z,4.47
2018-10-06T13:00:03.849Z,4.37
2018-10-06T13:02:37.987Z,4.83
2018-10-06T13:05:11.838Z,4.00
2018-10-06T13:07:45.464Z,4.72
2018-10-06T13:10:19.160Z,3.62
2018-10-06T13:12:54.293Z,4.10
2018-10-06T13:15:28.169Z,4.20
2018-10-06T13:18:02.253Z,4.20
2018-10-06T13:20:36.194Z,3.97
2018-10-06T13:23:10.459Z,4.10
2018-10-06T13:25:44.518Z,4.27
2018-10-06T13:28:18.388Z,3.90
2018-10-06T13:30:52.012Z,3.53
2018-10-06T13:33:25.722Z,3.20
2018-10-06T13:35:59.742Z,3.70
2018-10-06T13:38:33.386Z,3.77
2018-10-06T13:41:07.156Z,3.83
2018-10-06T13:43:40.923Z,3.47
2018-10-06T13:46:14.988Z,3.67
2018-10-06T13:48:48.476Z,4.03
2018-10-06T13:51:22.804Z,3.87
2018-10-06T13:53:56.671Z,3.70
2018-10-06T13:56:30.462Z,3.30
2018-10-06T13:59:04.094Z,3.63
2018-10-06T14:01:37.711Z,4.07
2018-10-06T14:04:11.699Z,3.83
2018-10-06T14:06:45.646Z,3.20
2018-10-06T14:09:19.522Z,4.00
2018-10-06T14:11:53.967Z,4.00
2018-10-06T14:14:28.885Z,4.27
2018-10-06T14:17:03.038Z,3.30
2018-10-06T14:19:37.094Z,3.20
2018-10-06T14:22:10.808Z,3.27
2018-10-06T14:24:45.442Z,3.30
2018-10-06T14:27:19.419Z,3.00
2018-10-06T14:29:54.168Z,3.30
2018-10-06T14:32:28.231Z,3.10
2018-10-06T14:35:02.053Z,3.25
2018-10-06T14:37:36.268Z,3.13
2018-10-06T14:40:10.273Z,2.87
2018-10-06T14:42:44.403Z,2.70
2018-10-06T14:45:18.591Z,2.83
2018-10-06T14:47:53.097Z,3.23
2018-10-06T14:50:27.260Z,2.77
2018-10-06T14:53:01.259Z,2.70
2018-10-06T14:55:34.935Z,2.73
2018-10-06T14:58:08.458Z,3.00
2018-10-06T15:00:42.446Z,2.63
2018-10-06T15:03:16.170Z,2.90
2018-10-06T15:05:50.050Z,2.83
2018-10-06T15:08:23.467Z,2.87
2018-10-06T15:10:57.294Z,3.20
2018-10-06T15:13:31.023Z,3.60
2018-10-06T15:16:06.401Z,3.20
2018-10-06T15:18:39.975Z,3.43
2018-10-06T15:21:13.997Z,3.33
2018-10-06T15:23:47.826Z,3.57
2018-10-06T15:26:21.373Z,4.10
2018-10-06T15:28:55.142Z,3.58
2018-10-06T15:31:28.679Z,3.07
2018-10-06T15:34:04.254Z,3.30
2018-10-06T15:36:38.126Z,3.00
2018-10-06T15:39:12.461Z,2.90
2018-10-06T15:41:46.148Z,3.17
2018-10-06T15:44:20.229Z,3.00
2018-10-06T15:46:53.986Z,3.50
2018-10-06T15:49:28.125Z,3.90
2018-10-06T15:52:02.031Z,3.63
2018-10-06T15:54:35.636Z,4.20
2018-10-06T15:57:09.579Z,3.50
2018-10-06T15:59:43.270Z,3.53
2018-10-06T16:02:17.209Z,3.20
2018-10-06T16:04:50.805Z,3.33
2018-10-06T16:07:25.284Z,3.65
2018-10-06T16:09:59.142Z,4.00
2018-10-06T16:12:33.498Z,3.58
2018-10-06T16:15:07.226Z,3.45
2018-10-06T16:17:42.256Z,3.97
2018-10-06T16:20:16.222Z,3.73
2018-10-06T16:22:50.083Z,4.97
2018-10-06T16:25:24.032Z,5.13
2018-10-06T16:27:57.888Z,4.93
2018-10-06T16:30:31.960Z,5.00
2018-10-06T16:33:06.250Z,5.23
2018-10-06T16:35:40.385Z,5.20
2018-10-06T16:38:14.407Z,5.03
2018-10-06T16:40:48.484Z,6.43
2018-10-06T16:43:21.625Z,6.50
2018-10-06T16:45:55.900Z,6.37
2018-10-06T16:48:29.327Z,6.30
2018-10-06T16:51:03.485Z,5.17
2018-10-06T16:53:37.494Z,5.43
2018-10-06T16:56:11.867Z,5.22
2018-10-06T16:58:45.712Z,5.57
2018-10-06T17:01:19.561Z,5.30
2018-10-06T17:03:53.658Z,6.57
2018-10-06T17:06:27.831Z,5.97
2018-10-06T17:09:01.675Z,6.23
2018-10-06T17:11:35.695Z,7.53
2018-10-06T17:14:10.263Z,5.63
2018-10-06T17:16:43.861Z,6.70
2018-10-06T17:19:18.128Z,6.30
2018-10-06T17:21:51.592Z,5.75
2018-10-06T17:24:25.247Z,6.33
2018-10-06T17:26:59.165Z,5.93
2018-10-06T17:29:33.764Z,5.83
2018-10-06T17:32:07.758Z,5.33
2018-10-06T17:34:41.894Z,5.40
2018-10-06T17:37:16.036Z,5.87
2018-10-06T17:39:50.083Z,5.42
2018-10-06T17:42:23.957Z,6.15
2018-10-06T17:44:58.133Z,6.08
2018-10-06T17:47:32.318Z,5.33
2018-10-06T17:50:06.517Z,5.63
2018-10-06T17:52:40.480Z,5.37
2018-10-06T17:55:14.052Z,7.27
2018-10-06T17:57:48.124Z,6.50
2018-10-06T18:00:21.996Z,6.10
2018-10-06T18:02:56.059Z,6.57
2018-10-06T18:05:30.050Z,6.80
2018-10-06T18:08:03.848Z,5.12
2018-10-06T18:10:37.535Z,5.77
2018-10-06T18:13:11.496Z,5.47
2018-10-06T18:15:45.626Z,5.80
2018-10-06T18:18:19.468Z,4.93
2018-10-06T18:20:54.220Z,5.67
2018-10-06T18:23:28.075Z,4.90
2018-10-06T18:26:02.073Z,4.47
2018-10-06T18:28:36.014Z,4.50
2018-10-06T18:31:10.491Z,5.07
2018-10-06T18:33:44.194Z,4.27
2018-10-06T18:36:18.009Z,4.60
2018-10-06T18:38:51.883Z,4.93
2018-10-06T18:41:25.338Z,5.07
2018-10-06T18:43:59.562Z,4.13
2018-10-06T18:46:33.878Z,4.63
2018-10-06T18:49:07.790Z,3.60
2018-10-06T18:51:41.862Z,3.87
2018-10-06T18:54:15.477Z,3.70
2018-10-06T18:56:49.221Z,3.52
2018-10-06T18:59:23.761Z,3.30
2018-10-06T19:01:57.631Z,3.73
2018-10-06T19:04:31.399Z,3.30
2018-10-06T19:07:04.804Z,3.30
2018-10-06T19:09:38.727Z,3.43
2018-10-06T19:12:12.587Z,4.37
2018-10-06T19:14:46.235Z,3.40
2018-10-06T19:17:21.169Z,3.43
2018-10-06T19:19:54.904Z,2.70
2018-10-06T19:22:30.039Z,2.63
2018-10-06T19:25:03.650Z,3.00
2018-10-06T19:27:37.409Z,2.73
2018-10-06T19:30:11.681Z,2.57
2018-10-06T19:32:45.514Z,2.50
2018-10-06T19:35:19.276Z,2.83
2018-10-06T19:37:53.455Z,2.52
2018-10-06T19:40:28.085Z,2.60
2018-10-06T19:43:02.185Z,2.55
2018-10-06T19:45:36.307Z,2.80
2018-10-06T19:48:09.901Z,2.80
2018-10-06T19:50:44.058Z,2.83
2018-10-06T19:53:17.949Z,3.20
2018-10-06T19:55:52.107Z,2.80
2018-10-06T19:58:25.797Z,3.40
2018-10-06T20:00:59.893Z,3.03
2018-10-06T20:03:33.911Z,2.73
2018-10-06T20:06:07.588Z,2.75
2018-10-06T20:08:41.255Z,2.65
2018-10-06T20:11:14.748Z,3.10
2018-10-06T20:13:48.296Z,2.80
2018-10-06T20:16:22.096Z,3.20
2018-10-06T20:18:55.874Z,3.00
2018-10-06T20:21:29.975Z,3.27
2018-10-06T20:24:04.890Z,3.12
2018-10-06T20:26:38.786Z,3.07
2018-10-06T20:29:12.606Z,3.02
2018-10-06T20:31:46.521Z,3.75
2018-10-06T20:34:19.912Z,3.30
2018-10-06T20:36:54.611Z,3.20
2018-10-06T20:39:28.455Z,3.20
2018-10-06T20:42:02.154Z,3.00
2018-10-06T20:44:36.063Z,2.80
2018-10-06T20:47:10.049Z,3.52
2018-10-06T20:49:43.737Z,3.30
2018-10-06T20:52:17.979Z,3.83
2018-10-06T20:54:52.001Z,3.67
2018-10-06T20:57:25.892Z,3.77
2018-10-06T21:00:00.522Z,4.07
2018-10-06T21:02:34.626Z,4.30
2018-10-06T21:05:09.217Z,4.17
2018-10-06T21:07:43.139Z,3.83
2018-10-06T21:10:16.950Z,4.60
2018-10-06T21:12:50.963Z,4.97
2018-10-06T21:15:24.553Z,4.60
2018-10-06T21:17:58.559Z,4.72
2018-10-06T21:20:31.872Z,4.40
2018-10-06T21:23:07.278Z,4.33
2018-10-06T21:25:41.561Z,4.03
2018-10-06T21:28:15.512Z,3.70
2018-10-06T21:30:49.521Z,3.83
2018-10-06T21:33:23.350Z,3.70
2018-10-06T21:35:57.376Z,4.10
2018-10-06T21:38:31.294Z,3.60
2018-10-06T21:41:05.439Z,3.67
2018-10-06T21:43:39.340Z,3.77
2018-10-06T21:46:13.414Z,4.40
2018-10-06T21:48:47.284Z,4.37
2018-10-06T21:51:20.781Z,4.20
2018-10-06T21:53:54.488Z,4.50
2018-10-06T21:56:27.912Z,4.63
2018-10-06T21:59:01.989Z,4.47
2018-10-06T22:01:37.148Z,4.62
2018-10-06T22:04:11.154Z,4.33
2018-10-06T22:06:44.573Z,4.20
2018-10-06T22:09:18.640Z,4.63
2018-10-06T22:11:52.437Z,4.20
2018-10-06T22:14:26.482Z,4.20
2018-10-06T22:17:00.171Z,3.93
2018-10-06T22:19:34.032Z,4.55
2018-10-06T22:22:07.532Z,4.30
2018-10-06T22:24:40.626Z,4.23
2018-10-06T22:27:15.869Z,5.00
2018-10-06T22:29:49.776Z,4.90
2018-10-06T22:32:24.158Z,4.73
2018-10-06T22:34:57.991Z,4.47
2018-10-06T22:37:31.733Z,4.80
2018-10-06T22:40:05.597Z,4.23
2018-10-06T22:42:39.640Z,4.47
2018-10-06T22:45:13.543Z,4.20
2018-10-06T22:47:48.323Z,5.33
2018-10-06T22:50:21.997Z,4.47
2018-10-06T22:52:55.874Z,5.20
2018-10-06T22:55:30.321Z,5.97
2018-10-06T22:58:03.929Z,6.33
2018-10-06T23:00:39.234Z,6.50
2018-10-06T23:03:13.126Z,6.47
2018-10-06T23:05:47.191Z,5.50
2018-10-06T23:08:21.141Z,6.33
2018-10-06T23:10:55.227Z,6.20
2018-10-06T23:13:29.017Z,5.70
2018-10-06T23:16:02.337Z,5.53
2018-10-06T23:18:36.648Z,5.90
2018-10-06T23:21:10.531Z,6.73
2018-10-06T23:23:44.345Z,7.83
2018-10-06T23:26:18.614Z,8.57
2018-10-06T23:28:53.938Z,9.33
2018-10-06T23:31:27.668Z,8.50
2018-10-06T23:34:01.586Z,9.20
2018-10-06T23:36:35.359Z,9.35
2018-10-06T23:39:09.567Z,9.13
2018-10-06T23:41:42.907Z,9.27
2018-10-06T23:44:17.203Z,9.20
2018-10-06T23:46:50.785Z,9.13
2018-10-06T23:49:24.837Z,10.47
2018-10-06T23:51:58.311Z,10.73
2018-10-06T23:54:31.980Z,10.18
2018-10-06T23:57:05.564Z,11.28
2018-10-06T23:59:39.187Z,11.80
